createdAt,value
2023-03-15T00:02:07.875Z,9.57
2023-03-15T00:04:34.730Z,9.55
2023-03-15T00:07:01.347Z,9.50
2023-03-15T00:09:30.163Z,9.59
2023-03-15T00:11:59.801Z,9.69
2023-03-15T00:14:26.393Z,9.59
2023-03-15T00:16:54.857Z,9.54
2023-03-15T00:19:26.370Z,9.41
2023-03-15T00:21:53.028Z,9.33
2023-03-15T00:24:25.250Z,9.36
2023-03-15T00:26:54.640Z,9.42
2023-03-15T00:29:23.436Z,9.42
2023-03-15T00:31:51.793Z,9.31
2023-03-15T00:34:24.601Z,9.31
2023-03-15T00:36:53.817Z,9.31
2023-03-15T00:39:20.694Z,9.24
2023-03-15T00:41:47.405Z,9.17
2023-03-15T00:44:14.460Z,9.21
2023-03-15T00:46:43.867Z,9.23
2023-03-15T00:49:10.591Z,9.07
2023-03-15T00:51:37.573Z,9.07
2023-03-15T00:54:06.852Z,9.01
2023-03-15T00:56:33.457Z,9.11
2023-03-15T00:59:00.041Z,9.05
2023-03-15T01:01:31.693Z,8.95
2023-03-15T01:03:58.293Z,8.99
2023-03-15T01:06:27.548Z,8.93
2023-03-15T01:08:56.080Z,8.94
2023-03-15T01:11:28.908Z,8.99
2023-03-15T01:14:00.812Z,8.95
2023-03-15T01:16:28.043Z,8.85
2023-03-15T01:18:57.916Z,8.85
2023-03-15T01:21:27.162Z,8.79
2023-03-15T01:23:55.096Z,8.90
2023-03-15T01:26:22.462Z,8.79
2023-03-15T01:28:51.663Z,8.67
2023-03-15T01:31:27.777Z,8.71
2023-03-15T01:33:54.908Z,8.74
2023-03-15T01:36:21.607Z,8.70
2023-03-15T01:38:49.643Z,8.69
2023-03-15T01:41:20.148Z,8.60
2023-03-15T01:43:49.494Z,8.66
2023-03-15T01:46:25.365Z,8.61
2023-03-15T01:48:57.397Z,8.55
2023-03-15T01:51:23.908Z,8.53
2023-03-15T01:54:21.236Z,8.56
2023-03-15T01:57:00.304Z,8.50
2023-03-15T01:59:33.268Z,8.46
2023-03-15T02:02:03.125Z,8.49
2023-03-15T02:04:53.606Z,8.52
2023-03-15T02:07:23.122Z,8.46
2023-03-15T02:10:01.427Z,8.42
2023-03-15T02:12:34.606Z,8.36
2023-03-15T02:15:07.717Z,8.39
2023-03-15T02:17:43.457Z,8.42
2023-03-15T02:20:41.717Z,8.55
2023-03-15T02:23:14.552Z,8.42
2023-03-15T02:25:59.715Z,8.52
2023-03-15T02:28:26.889Z,8.43
2023-03-15T02:30:53.526Z,8.38
2023-03-15T02:33:33.796Z,8.56
2023-03-15T02:36:28.039Z,8.56
2023-03-15T02:38:56.334Z,8.46
2023-03-15T02:41:29.628Z,8.42
2023-03-15T02:44:02.346Z,8.40
2023-03-15T02:46:29.661Z,8.45
2023-03-15T02:48:56.830Z,8.40
2023-03-15T02:51:27.231Z,8.33
2023-03-15T02:53:56.574Z,8.40
2023-03-15T02:56:23.240Z,8.40
2023-03-15T02:58:52.302Z,8.41
2023-03-15T03:01:23.914Z,8.36
2023-03-15T03:03:55.411Z,8.34
2023-03-15T03:06:22.065Z,8.41
2023-03-15T03:08:48.925Z,8.34
2023-03-15T03:11:18.285Z,8.40
2023-03-15T03:13:47.153Z,8.34
2023-03-15T03:16:13.841Z,8.36
2023-03-15T03:18:42.236Z,8.43
2023-03-15T03:21:09.149Z,8.33
2023-03-15T03:23:39.190Z,8.41
2023-03-15T03:26:16.577Z,8.40
2023-03-15T03:28:45.714Z,8.29
2023-03-15T03:31:22.488Z,8.33
2023-03-15T03:33:52.152Z,8.31
2023-03-15T03:36:19.290Z,8.34
2023-03-15T03:38:47.145Z,8.33
2023-03-15T03:41:16.055Z,8.25
2023-03-15T03:43:45.393Z,8.23
2023-03-15T03:46:14.500Z,8.21
2023-03-15T03:48:41.015Z,8.24
2023-03-15T03:51:07.582Z,8.15
2023-03-15T03:53:34.175Z,8.19
2023-03-15T03:56:05.281Z,8.13
2023-03-15T03:58:34.478Z,8.19
2023-03-15T04:01:00.930Z,8.23
2023-03-15T04:03:30.221Z,8.06
2023-03-15T04:05:58.667Z,8.05
2023-03-15T04:08:28.270Z,8.05
2023-03-15T04:11:00.085Z,7.97
2023-03-15T04:13:26.672Z,8.08
2023-03-15T04:15:57.767Z,8.01
2023-03-15T04:18:25.068Z,7.88
2023-03-15T04:20:57.022Z,7.88
2023-03-15T04:23:26.468Z,7.85
2023-03-15T04:25:58.163Z,7.85
2023-03-15T04:28:24.836Z,7.87
2023-03-15T04:30:52.536Z,7.93
2023-03-15T04:33:24.613Z,7.89
2023-03-15T04:35:54.120Z,7.71
2023-03-15T04:38:26.875Z,7.69
2023-03-15T04:40:54.838Z,7.66
2023-03-15T04:43:24.474Z,7.46
2023-03-15T04:45:53.568Z,7.39
2023-03-15T04:48:22.515Z,7.38
2023-03-15T04:50:49.070Z,7.14
2023-03-15T04:53:18.078Z,7.13
2023-03-15T04:55:47.194Z,7.15
2023-03-15T04:58:13.948Z,7.24
2023-03-15T05:00:45.887Z,7.04
2023-03-15T05:03:12.527Z,7.00
2023-03-15T05:05:43.665Z,7.01
2023-03-15T05:08:12.644Z,6.89
2023-03-15T05:10:44.192Z,6.78
2023-03-15T05:13:13.064Z,6.57
2023-03-15T05:15:42.071Z,6.69
2023-03-15T05:18:10.906Z,6.60
2023-03-15T05:20:39.570Z,6.59
2023-03-15T05:23:06.203Z,6.55
2023-03-15T05:25:32.839Z,6.43
2023-03-15T05:28:04.613Z,6.41
2023-03-15T05:30:32.031Z,6.36
2023-03-15T05:32:58.876Z,6.40
2023-03-15T05:35:28.261Z,6.30
2023-03-15T05:38:03.648Z,6.30
2023-03-15T05:40:30.349Z,6.28
2023-03-15T05:42:57.051Z,6.05
2023-03-15T05:45:26.721Z,6.16
2023-03-15T05:47:58.590Z,6.02
2023-03-15T05:50:28.397Z,5.99
2023-03-15T05:52:58.255Z,6.06
2023-03-15T05:55:25.042Z,5.99
2023-03-15T05:57:51.897Z,6.03
2023-03-15T06:00:21.918Z,6.06
2023-03-15T06:02:50.739Z,6.10
2023-03-15T06:05:17.455Z,6.05
2023-03-15T06:07:46.391Z,6.02
2023-03-15T06:10:15.641Z,5.96
2023-03-15T06:12:42.076Z,5.98
2023-03-15T06:15:12.221Z,6.04
2023-03-15T06:17:38.812Z,6.03
2023-03-15T06:20:08.844Z,6.09
2023-03-15T06:22:35.428Z,6.15
2023-03-15T06:25:04.214Z,6.27
2023-03-15T06:27:33.135Z,6.25
2023-03-15T06:29:59.702Z,6.17
2023-03-15T06:32:26.374Z,6.12
2023-03-15T06:34:53.146Z,6.14
2023-03-15T06:37:34.284Z,6.08
2023-03-15T06:40:09.883Z,6.02
2023-03-15T06:42:39.357Z,5.97
2023-03-15T06:45:07.032Z,5.95
2023-03-15T06:47:36.001Z,5.71
2023-03-15T06:50:05.326Z,5.80
2023-03-15T06:52:31.799Z,5.82
2023-03-15T06:55:00.807Z,5.84
2023-03-15T06:57:27.591Z,5.88
2023-03-15T06:59:54.281Z,5.93
2023-03-15T07:02:21.210Z,5.81
2023-03-15T07:04:48.153Z,5.77
2023-03-15T07:07:18.988Z,5.76
2023-03-15T07:09:47.812Z,5.92
2023-03-15T07:12:14.510Z,5.83
2023-03-15T07:14:43.390Z,5.98
2023-03-15T07:17:10.194Z,5.75
2023-03-15T07:19:41.385Z,5.73
2023-03-15T07:22:15.544Z,5.59
2023-03-15T07:24:44.617Z,5.80
2023-03-15T07:27:15.330Z,5.80
2023-03-15T07:29:42.762Z,5.73
2023-03-15T07:32:09.492Z,5.71
2023-03-15T07:34:38.760Z,5.56
2023-03-15T07:37:05.355Z,5.53
2023-03-15T07:39:36.732Z,5.56
2023-03-15T07:42:07.282Z,5.55
2023-03-15T07:44:33.881Z,5.57
2023-03-15T07:47:00.739Z,5.52
2023-03-15T07:49:27.458Z,5.54
2023-03-15T07:51:54.184Z,5.54
2023-03-15T07:54:21.110Z,5.52
2023-03-15T07:56:47.717Z,5.60
2023-03-15T07:59:14.366Z,5.54
2023-03-15T08:01:41.034Z,5.68
2023-03-15T08:04:07.979Z,5.63
2023-03-15T08:06:34.587Z,5.73
2023-03-15T08:09:05.789Z,5.61
2023-03-15T08:11:33.446Z,5.74
2023-03-15T08:14:02.404Z,5.74
2023-03-15T08:16:31.500Z,5.81
2023-03-15T08:19:00.307Z,5.86
2023-03-15T08:21:29.832Z,5.90
2023-03-15T08:23:58.938Z,5.83
2023-03-15T08:26:28.161Z,5.75
2023-03-15T08:28:57.254Z,5.78
2023-03-15T08:31:26.498Z,5.80
2023-03-15T08:33:53.151Z,5.74
2023-03-15T08:36:20.299Z,5.85
2023-03-15T08:38:49.061Z,5.86
2023-03-15T08:41:18.057Z,5.91
2023-03-15T08:43:51.636Z,5.92
2023-03-15T08:46:22.069Z,5.87
2023-03-15T08:48:51.490Z,5.94
2023-03-15T08:51:21.894Z,5.87
2023-03-15T08:53:52.042Z,5.78
2023-03-15T08:56:19.276Z,5.71
2023-03-15T08:58:48.591Z,5.70
2023-03-15T09:01:17.246Z,5.60
2023-03-15T09:03:44.116Z,5.71
2023-03-15T09:06:13.724Z,5.61
2023-03-15T09:09:20.354Z,5.71
2023-03-15T09:11:47.031Z,5.54
2023-03-15T09:14:16.150Z,5.52
2023-03-15T09:16:42.744Z,5.50
2023-03-15T09:19:14.083Z,5.57
2023-03-15T09:21:42.276Z,5.50
2023-03-15T09:24:09.538Z,5.60
2023-03-15T09:26:36.174Z,5.57
2023-03-15T09:29:02.787Z,5.52
2023-03-15T09:31:29.388Z,5.61
2023-03-15T09:33:56.671Z,5.57
2023-03-15T09:36:27.879Z,5.51
2023-03-15T09:38:54.469Z,5.56
2023-03-15T09:41:46.677Z,5.66
2023-03-15T09:44:25.454Z,5.72
2023-03-15T09:47:04.211Z,5.60
2023-03-15T09:49:43.680Z,5.72
2023-03-15T09:52:16.350Z,5.60
2023-03-15T09:55:12.727Z,5.58
2023-03-15T09:58:06.629Z,5.69
2023-03-15T10:00:38.549Z,5.61
2023-03-15T10:03:09.898Z,5.60
2023-03-15T10:05:39.455Z,5.64
2023-03-15T10:08:22.111Z,5.74
2023-03-15T10:11:00.642Z,5.71
2023-03-15T10:13:43.039Z,5.71
2023-03-15T10:16:28.860Z,5.84
2023-03-15T10:19:07.670Z,5.91
2023-03-15T10:21:48.932Z,5.80
2023-03-15T10:24:24.925Z,5.83
2023-03-15T10:26:53.586Z,5.88
2023-03-15T10:29:24.857Z,5.78
2023-03-15T10:31:54.420Z,5.99
2023-03-15T10:34:26.157Z,5.86
2023-03-15T10:36:55.540Z,5.96
2023-03-15T10:39:28.000Z,6.13
2023-03-15T10:41:57.232Z,6.11
2023-03-15T10:44:25.267Z,6.26
2023-03-15T10:47:22.123Z,6.28
2023-03-15T10:49:50.263Z,6.54
2023-03-15T10:52:34.514Z,6.44
2023-03-15T10:55:07.820Z,6.31
2023-03-15T10:57:39.244Z,6.36
2023-03-15T11:00:23.962Z,6.40
2023-03-15T11:03:00.940Z,6.51
2023-03-15T11:05:36.991Z,6.50
2023-03-15T11:08:03.641Z,6.40
2023-03-15T11:10:35.048Z,6.56
2023-03-15T11:13:30.863Z,6.58
2023-03-15T11:16:04.458Z,6.66
2023-03-15T11:18:48.694Z,6.71
2023-03-15T11:21:19.160Z,6.54
2023-03-15T11:23:51.192Z,6.74
2023-03-15T11:26:33.484Z,6.86
2023-03-15T11:29:08.005Z,6.86
2023-03-15T11:31:36.384Z,6.85
2023-03-15T11:34:02.957Z,6.75
2023-03-15T11:36:33.907Z,6.96
2023-03-15T11:39:05.793Z,7.15
2023-03-15T11:41:41.060Z,6.83
2023-03-15T11:44:33.666Z,7.05
2023-03-15T11:47:23.668Z,7.11
2023-03-15T11:49:52.045Z,7.21
2023-03-15T11:52:23.471Z,7.20
2023-03-15T11:54:57.181Z,7.38
2023-03-15T11:57:33.200Z,7.12
2023-03-15T12:00:29.300Z,7.14
2023-03-15T12:02:58.200Z,7.20
2023-03-15T12:05:56.086Z,7.18
2023-03-15T12:08:56.256Z,7.29
2023-03-15T12:11:22.763Z,7.42
2023-03-15T12:13:58.439Z,7.61
2023-03-15T12:16:31.370Z,7.69
2023-03-15T12:18:59.704Z,7.68
2023-03-15T12:21:33.622Z,7.35
2023-03-15T12:24:17.008Z,7.63
2023-03-15T12:26:59.050Z,7.65
2023-03-15T12:29:32.542Z,7.57
2023-03-15T12:32:02.119Z,7.65
2023-03-15T12:34:31.856Z,7.60
2023-03-15T12:37:04.615Z,7.68
2023-03-15T12:39:44.804Z,7.51
2023-03-15T12:42:39.172Z,7.46
2023-03-15T12:45:20.511Z,7.54
2023-03-15T12:47:50.189Z,7.51
2023-03-15T12:50:50.903Z,7.54
2023-03-15T12:53:23.413Z,7.43
2023-03-15T12:56:06.120Z,7.69
2023-03-15T12:58:41.202Z,7.84
2023-03-15T13:01:10.574Z,7.74
2023-03-15T13:03:37.335Z,7.86
2023-03-15T13:06:49.572Z,7.84
2023-03-15T13:09:56.495Z,7.82
2023-03-15T13:12:29.144Z,8.02
2023-03-15T13:15:02.270Z,8.10
2023-03-15T13:17:34.917Z,8.13
2023-03-15T13:20:18.661Z,8.11
2023-03-15T13:23:09.471Z,8.02
2023-03-15T13:26:02.897Z,8.12
2023-03-15T13:28:39.900Z,8.19
2023-03-15T13:31:31.037Z,8.18
2023-03-15T13:34:13.527Z,8.26
2023-03-15T13:36:47.469Z,8.27
2023-03-15T13:39:26.024Z,8.20
2023-03-15T13:42:03.125Z,8.03
2023-03-15T13:44:30.599Z,8.20
2023-03-15T13:46:58.315Z,8.16
2023-03-15T13:49:32.529Z,7.96
2023-03-15T13:52:02.271Z,7.96
2023-03-15T13:54:34.191Z,8.13
2023-03-15T13:57:07.346Z,7.84
2023-03-15T13:59:48.589Z,7.61
2023-03-15T14:02:25.263Z,7.72
2023-03-15T14:04:58.425Z,7.84
2023-03-15T14:07:37.200Z,7.71
2023-03-15T14:10:32.726Z,7.78
2023-03-15T14:13:27.597Z,7.57
2023-03-15T14:16:05.909Z,7.47
2023-03-15T14:18:38.204Z,7.29
2023-03-15T14:21:20.479Z,7.42
2023-03-15T14:23:49.060Z,7.43
2023-03-15T14:26:21.610Z,7.24
2023-03-15T14:28:56.405Z,7.24
2023-03-15T14:31:30.357Z,7.15
2023-03-15T14:34:06.089Z,7.07
2023-03-15T14:36:48.339Z,7.28
2023-03-15T14:39:30.825Z,7.20
2023-03-15T14:41:57.586Z,7.07
2023-03-15T14:44:24.206Z,7.04
2023-03-15T14:46:51.180Z,6.92
2023-03-15T14:49:28.613Z,6.96
2023-03-15T14:51:58.172Z,6.96
2023-03-15T14:54:29.670Z,6.97
2023-03-15T14:56:56.591Z,6.90
2023-03-15T14:59:25.449Z,6.87
2023-03-15T15:01:57.088Z,6.90
2023-03-15T15:04:30.599Z,6.93
2023-03-15T15:06:57.992Z,6.90
2023-03-15T15:09:27.014Z,6.90
2023-03-15T15:11:57.039Z,6.99
2023-03-15T15:14:25.917Z,7.01
2023-03-15T15:16:52.627Z,7.03
2023-03-15T15:19:19.353Z,7.03
2023-03-15T15:21:48.523Z,6.89
2023-03-15T15:24:16.355Z,6.85
2023-03-15T15:27:20.288Z,6.93
2023-03-15T15:29:54.071Z,6.91
2023-03-15T15:35:38.915Z,6.72
2023-03-15T15:38:14.119Z,6.68
2023-03-15T15:40:41.017Z,6.70
2023-03-15T15:47:29.470Z,6.66
2023-03-15T15:50:34.355Z,6.67
2023-03-15T15:53:06.459Z,6.59
2023-03-15T15:55:40.997Z,6.67
2023-03-15T16:01:05.428Z,6.60
2023-03-15T16:04:10.074Z,6.62
2023-03-15T16:07:15.429Z,6.63
2023-03-15T16:10:21.836Z,6.61
2023-03-15T16:12:58.107Z,6.58
2023-03-15T16:18:57.269Z,6.35
2023-03-15T16:19:21.826Z,6.53
2023-03-15T16:25:03.264Z,6.42
2023-03-15T16:27:30.724Z,6.35
2023-03-15T16:31:42.541Z,6.43
2023-03-15T16:34:48.288Z,6.46
2023-03-15T16:40:49.214Z,6.45
2023-03-15T16:43:30.913Z,6.30
2023-03-15T16:46:42.013Z,6.29
2023-03-15T16:49:22.177Z,6.33
2023-03-15T16:51:56.860Z,6.25
2023-03-15T16:57:22.221Z,6.17
2023-03-15T16:59:50.787Z,6.06
2023-03-15T17:02:37.208Z,6.00
2023-03-15T17:05:06.338Z,5.95
2023-03-15T17:07:43.484Z,5.99
2023-03-15T17:10:33.070Z,6.03
2023-03-15T17:13:02.210Z,6.02
2023-03-15T17:15:45.980Z,5.81
2023-03-15T17:18:37.584Z,5.84
2023-03-15T17:21:04.899Z,5.73
2023-03-15T17:23:38.845Z,5.87
2023-03-15T17:26:14.283Z,5.80
2023-03-15T17:28:42.044Z,5.73
2023-03-15T17:31:24.923Z,5.76
2023-03-15T17:33:54.421Z,5.64
2023-03-15T17:36:23.832Z,5.60
2023-03-15T17:38:55.728Z,5.56
2023-03-15T17:41:27.031Z,5.57
2023-03-15T17:43:53.746Z,5.56
2023-03-15T17:46:22.923Z,5.57
2023-03-15T17:48:49.477Z,5.52
2023-03-15T17:51:30.215Z,5.57
2023-03-15T17:53:59.340Z,5.51
2023-03-15T17:56:27.611Z,5.56
2023-03-15T17:59:17.213Z,5.51
2023-03-15T18:02:01.045Z,5.63
2023-03-15T18:04:27.983Z,5.55
2023-03-15T18:07:20.497Z,5.45
2023-03-15T18:13:50.787Z,5.57
2023-03-15T18:19:43.895Z,5.38
2023-03-15T18:22:19.931Z,5.47
2023-03-15T18:25:06.088Z,5.58
2023-03-15T18:27:44.595Z,5.47
2023-03-15T18:30:15.998Z,5.58
2023-03-15T18:39:16.152Z,5.49
2023-03-15T18:41:58.063Z,5.46
2023-03-15T18:44:43.809Z,5.38
2023-03-15T18:47:32.286Z,5.46
2023-03-15T18:50:15.385Z,5.37
2023-03-15T18:52:42.636Z,5.40
2023-03-15T18:55:29.511Z,5.42
2023-03-15T18:57:56.255Z,5.49
2023-03-15T19:06:59.949Z,5.46
2023-03-15T19:09:44.963Z,5.36
2023-03-15T19:12:23.097Z,5.27
2023-03-15T19:18:34.977Z,5.31
2023-03-15T19:21:47.487Z,5.25
2023-03-15T19:24:17.297Z,5.24
2023-03-15T19:29:27.994Z,5.20
2023-03-15T19:32:03.699Z,5.19
2023-03-15T19:34:33.631Z,5.03
2023-03-15T19:40:19.530Z,5.02
2023-03-15T19:42:59.194Z,5.05
2023-03-15T19:45:31.021Z,5.07
2023-03-15T19:48:11.601Z,5.02
2023-03-15T19:50:40.996Z,5.01
2023-03-15T19:53:10.298Z,4.99
2023-03-15T19:55:37.090Z,5.08
2023-03-15T19:58:03.885Z,4.93
2023-03-15T20:00:30.798Z,4.84
2023-03-15T20:03:02.141Z,4.87
2023-03-15T20:05:28.795Z,4.95
2023-03-15T20:07:57.877Z,5.07
2023-03-15T20:10:24.631Z,4.85
2023-03-15T20:12:51.333Z,4.94
2023-03-15T20:15:20.989Z,4.95
2023-03-15T20:17:49.788Z,5.07
2023-03-15T20:20:16.798Z,4.82
2023-03-15T20:22:44.833Z,4.95
2023-03-15T20:25:19.314Z,4.97
2023-03-15T20:27:46.395Z,4.95
2023-03-15T20:30:14.932Z,4.96
2023-03-15T20:32:44.221Z,5.03
2023-03-15T20:35:11.002Z,4.96
2023-03-15T20:37:41.639Z,4.96
2023-03-15T20:40:14.414Z,4.88
2023-03-15T20:42:46.013Z,4.90
2023-03-15T20:45:13.949Z,4.83
2023-03-15T20:47:43.180Z,4.79
2023-03-15T20:50:11.393Z,4.84
2023-03-15T20:52:41.023Z,4.94
2023-03-15T20:55:08.438Z,4.94
2023-03-15T20:57:41.237Z,4.85
2023-03-15T21:00:18.631Z,4.98
2023-03-15T21:02:46.892Z,4.98
2023-03-15T21:05:17.317Z,5.00
2023-03-15T21:07:46.678Z,4.85
2023-03-15T21:10:14.468Z,4.80
2023-03-15T21:12:44.095Z,4.79
2023-03-15T21:15:15.781Z,4.76
2023-03-15T21:17:42.361Z,4.82
2023-03-15T21:20:11.752Z,4.84
2023-03-15T21:22:39.057Z,4.79
2023-03-15T21:25:08.678Z,4.85
2023-03-15T21:27:35.577Z,4.74
2023-03-15T21:30:02.440Z,4.76
2023-03-15T21:32:29.251Z,4.75
2023-03-15T21:35:01.214Z,4.83
2023-03-15T21:37:30.486Z,4.90
2023-03-15T21:39:57.090Z,4.70
2023-03-15T21:42:23.816Z,4.78
2023-03-15T21:44:53.754Z,4.74
2023-03-15T21:47:23.627Z,4.89
2023-03-15T21:49:51.027Z,4.85
2023-03-15T21:52:17.612Z,4.69
2023-03-15T21:54:46.740Z,4.74
2023-03-15T21:57:13.526Z,4.79
2023-03-15T21:59:41.002Z,4.87
2023-03-15T22:02:10.384Z,4.82
2023-03-15T22:04:39.922Z,4.85
2023-03-15T22:07:09.633Z,4.69
2023-03-15T22:09:38.067Z,4.82
2023-03-15T22:12:07.814Z,4.95
2023-03-15T22:14:34.594Z,4.81
2023-03-15T22:17:04.761Z,4.89
2023-03-15T22:19:34.825Z,4.85
2023-03-15T22:22:01.534Z,4.82
2023-03-15T22:24:29.060Z,4.80
2023-03-15T22:26:58.091Z,4.84
2023-03-15T22:29:24.666Z,4.82
2023-03-15T22:31:53.694Z,4.71
2023-03-15T22:34:20.560Z,4.74
2023-03-15T22:36:49.481Z,4.88
2023-03-15T22:39:18.626Z,4.78
2023-03-15T22:41:46.169Z,4.79
2023-03-15T22:44:15.451Z,4.67
2023-03-15T22:46:42.071Z,4.75
2023-03-15T22:49:11.774Z,4.77
2023-03-15T22:51:40.929Z,4.91
2023-03-15T22:54:10.075Z,4.78
2023-03-15T22:56:39.495Z,4.70
2023-03-15T22:59:07.618Z,4.75
2023-03-15T23:01:34.326Z,4.61
2023-03-15T23:04:04.855Z,4.65
2023-03-15T23:06:33.818Z,4.72
2023-03-15T23:09:00.896Z,4.74
2023-03-15T23:11:27.508Z,4.71
2023-03-15T23:13:59.028Z,4.50
2023-03-15T23:16:25.638Z,4.63
2023-03-15T23:18:55.276Z,4.63
2023-03-15T23:21:24.290Z,4.47
2023-03-15T23:23:50.955Z,4.45
2023-03-15T23:26:19.488Z,4.61
2023-03-15T23:28:49.359Z,4.45
2023-03-15T23:31:16.071Z,4.35
2023-03-15T23:33:47.029Z,4.50
2023-03-15T23:36:16.577Z,4.34
2023-03-15T23:38:43.236Z,4.33
2023-03-15T23:41:14.581Z,4.29
2023-03-15T23:43:43.438Z,4.09
2023-03-15T23:46:15.879Z,4.06
2023-03-15T23:48:45.361Z,4.12
2023-03-15T23:51:17.794Z,4.10
2023-03-15T23:53:44.407Z,4.03
2023-03-15T23:56:13.250Z,3.86
2023-03-15T23:58:45.290Z,3.86
